sensor_id;sensor_type;location;lat;lon;timestamp;temperature;humidity
36132;DHT22;22185;48.738;9.324;2022-12-18T00:01:33;-5.50;99.90
36132;DHT22;22185;48.738;9.324;2022-12-18T00:03:35;-5.60;99.90
36132;DHT22;22185;48.738;9.324;2022-12-18T00:11:44;-5.60;99.90
36132;DHT22;22185;48.738;9.324;2022-12-18T00:13:46;-5.50;99.90
36132;DHT22;22185;48.738;9.324;2022-12-18T00:15:48;-5.70;99.90
36132;DHT22;22185;48.738;9.324;2022-12-18T00:17:50;-5.60;99.90
36132;DHT22;22185;48.738;9.324;2022-12-18T00:19:52;-5.50;99.90
36132;DHT22;22185;48.738;9.324;2022-12-18T00:21:56;-5.50;99.90
36132;DHT22;22185;48.738;9.324;2022-12-18T00:23:59;-5.70;99.90
36132;DHT22;22185;48.738;9.324;2022-12-18T00:26:01;-5.60;99.90
36132;DHT22;22185;48.738;9.324;2022-12-18T00:28:03;-5.80;99.90
36132;DHT22;22185;48.738;9.324;2022-12-18T00:30:05;-5.70;99.90
36132;DHT22;22185;48.738;9.324;2022-12-18T00:32:07;-5.70;99.90
36132;DHT22;22185;48.738;9.324;2022-12-18T00:34:10;-5.70;99.90
36132;DHT22;22185;48.738;9.324;2022-12-18T00:36:14;-5.60;99.90
36132;DHT22;22185;48.738;9.324;2022-12-18T00:38:16;-6.10;99.90
36132;DHT22;22185;48.738;9.324;2022-12-18T00:40:18;-6.30;99.90
36132;DHT22;22185;48.738;9.324;2022-12-18T00:42:22;-6.20;99.90
36132;DHT22;22185;48.738;9.324;2022-12-18T00:44:42;-6.20;99.90
36132;DHT22;22185;48.738;9.324;2022-12-18T00:46:44;-5.90;99.90
36132;DHT22;22185;48.738;9.324;2022-12-18T00:48:46;-5.90;99.90
36132;DHT22;22185;48.738;9.324;2022-12-18T00:50:49;-6.00;99.90
36132;DHT22;22185;48.738;9.324;2022-12-18T00:52:51;-6.10;99.90
36132;DHT22;22185;48.738;9.324;2022-12-18T00:54:52;-5.90;99.90
36132;DHT22;22185;48.738;9.324;2022-12-18T00:56:54;-5.70;99.90
36132;DHT22;22185;48.738;9.324;2022-12-18T00:58:56;-5.70;99.90
36132;DHT22;22185;48.738;9.324;2022-12-18T01:00:58;-5.80;99.90
36132;DHT22;22185;48.738;9.324;2022-12-18T01:03:00;-5.80;99.90
36132;DHT22;22185;48.738;9.324;2022-12-18T01:05:02;-5.60;99.90
36132;DHT22;22185;48.738;9.324;2022-12-18T01:07:03;-5.80;99.90
36132;DHT22;22185;48.738;9.324;2022-12-18T01:09:05;-6.00;99.90
36132;DHT22;22185;48.738;9.324;2022-12-18T01:11:08;-6.10;99.90
36132;DHT22;22185;48.738;9.324;2022-12-18T01:13:10;-6.00;99.90
36132;DHT22;22185;48.738;9.324;2022-12-18T01:15:12;-5.90;99.90
36132;DHT22;22185;48.738;9.324;2022-12-18T01:17:15;-5.80;99.90
36132;DHT22;22185;48.738;9.324;2022-12-18T01:19:16;-5.70;99.90
36132;DHT22;22185;48.738;9.324;2022-12-18T01:21:18;-5.90;99.90
36132;DHT22;22185;48.738;9.324;2022-12-18T01:23:20;-6.00;99.90
36132;DHT22;22185;48.738;9.324;2022-12-18T01:25:22;-6.10;99.90
36132;DHT22;22185;48.738;9.324;2022-12-18T01:27:23;-6.10;99.90
36132;DHT22;22185;48.738;9.324;2022-12-18T01:29:25;-6.00;99.90
36132;DHT22;22185;48.738;9.324;2022-12-18T01:31:27;-6.00;99.90
36132;DHT22;22185;48.738;9.324;2022-12-18T01:33:29;-6.20;99.90
36132;DHT22;22185;48.738;9.324;2022-12-18T01:35:31;-6.20;99.90
36132;DHT22;22185;48.738;9.324;2022-12-18T01:37:33;-6.30;99.90
36132;DHT22;22185;48.738;9.324;2022-12-18T01:39:35;-6.70;99.90
36132;DHT22;22185;48.738;9.324;2022-12-18T01:41:37;-6.70;99.90
36132;DHT22;22185;48.738;9.324;2022-12-18T01:43:57;-6.60;99.90
36132;DHT22;22185;48.738;9.324;2022-12-18T01:45:59;-6.20;99.90
36132;DHT22;22185;48.738;9.324;2022-12-18T01:48:07;-5.90;99.90
36132;DHT22;22185;48.738;9.324;2022-12-18T01:50:11;-5.90;99.90
36132;DHT22;22185;48.738;9.324;2022-12-18T01:52:13;-6.20;99.90
36132;DHT22;22185;48.738;9.324;2022-12-18T01:54:14;-6.30;99.90
36132;DHT22;22185;48.738;9.324;2022-12-18T01:56:16;-6.40;99.90
36132;DHT22;22185;48.738;9.324;2022-12-18T01:58:19;-6.50;99.90
36132;DHT22;22185;48.738;9.324;2022-12-18T02:00:22;-6.30;99.90
36132;DHT22;22185;48.738;9.324;2022-12-18T02:02:24;-6.60;99.90
36132;DHT22;22185;48.738;9.324;2022-12-18T02:04:28;-6.50;99.90
36132;DHT22;22185;48.738;9.324;2022-12-18T02:06:33;-6.60;99.90
36132;DHT22;22185;48.738;9.324;2022-12-18T02:08:41;-6.80;99.90
36132;DHT22;22185;48.738;9.324;2022-12-18T02:13:13;-6.60;99.90
36132;DHT22;22185;48.738;9.324;2022-12-18T02:15:18;-6.50;99.90
36132;DHT22;22185;48.738;9.324;2022-12-18T02:17:26;-6.50;99.90
36132;DHT22;22185;48.738;9.324;2022-12-18T02:27:55;-6.30;99.90
36132;DHT22;22185;48.738;9.324;2022-12-18T02:29:59;-6.40;99.90
36132;DHT22;22185;48.738;9.324;2022-12-18T02:32:02;-6.50;99.90
36132;DHT22;22185;48.738;9.324;2022-12-18T02:34:04;-6.50;99.90
36132;DHT22;22185;48.738;9.324;2022-12-18T02:36:07;-6.40;99.90
36132;DHT22;22185;48.738;9.324;2022-12-18T02:38:09;-6.30;99.90
36132;DHT22;22185;48.738;9.324;2022-12-18T02:40:12;-6.20;99.90
36132;DHT22;22185;48.738;9.324;2022-12-18T02:42:15;-6.20;99.90
36132;DHT22;22185;48.738;9.324;2022-12-18T02:44:18;-6.30;99.90
36132;DHT22;22185;48.738;9.324;2022-12-18T02:46:31;-6.30;99.90
36132;DHT22;22185;48.738;9.324;2022-12-18T02:48:33;-6.40;99.90
36132;DHT22;22185;48.738;9.324;2022-12-18T02:50:42;-6.20;99.90
36132;DHT22;22185;48.738;9.324;2022-12-18T02:57:23;-6.40;99.90
36132;DHT22;22185;48.738;9.324;2022-12-18T02:59:30;-6.50;99.90
36132;DHT22;22185;48.738;9.324;2022-12-18T03:03:47;-6.60;99.90
36132;DHT22;22185;48.738;9.324;2022-12-18T03:05:56;-6.50;99.90
36132;DHT22;22185;48.738;9.324;2022-12-18T03:10:00;-6.50;99.90
36132;DHT22;22185;48.738;9.324;2022-12-18T03:12:15;-6.60;99.90
36132;DHT22;22185;48.738;9.324;2022-12-18T03:14:25;-6.70;99.90
36132;DHT22;22185;48.738;9.324;2022-12-18T03:16:28;-6.70;99.90
36132;DHT22;22185;48.738;9.324;2022-12-18T03:18:34;-6.70;99.90
36132;DHT22;22185;48.738;9.324;2022-12-18T03:20:36;-6.80;99.90
36132;DHT22;22185;48.738;9.324;2022-12-18T03:22:40;-6.90;99.90
36132;DHT22;22185;48.738;9.324;2022-12-18T03:24:45;-6.80;99.90
36132;DHT22;22185;48.738;9.324;2022-12-18T03:26:49;-6.70;99.90
36132;DHT22;22185;48.738;9.324;2022-12-18T03:28:53;-6.90;99.90
36132;DHT22;22185;48.738;9.324;2022-12-18T03:30:56;-6.80;99.90
36132;DHT22;22185;48.738;9.324;2022-12-18T03:33:05;-6.90;99.90
36132;DHT22;22185;48.738;9.324;2022-12-18T03:35:09;-6.90;99.90
36132;DHT22;22185;48.738;9.324;2022-12-18T03:37:11;-7.10;99.90
36132;DHT22;22185;48.738;9.324;2022-12-18T03:39:13;-7.10;99.90
36132;DHT22;22185;48.738;9.324;2022-12-18T03:41:18;-7.20;99.90
36132;DHT22;22185;48.738;9.324;2022-12-18T03:47:35;-7.20;99.90
36132;DHT22;22185;48.738;9.324;2022-12-18T03:49:50;-7.00;99.90
36132;DHT22;22185;48.738;9.324;2022-12-18T03:51:59;-6.80;99.90
36132;DHT22;22185;48.738;9.324;2022-12-18T03:54:02;-6.80;99.90
36132;DHT22;22185;48.738;9.324;2022-12-18T03:56:05;-6.90;99.90
36132;DHT22;22185;48.738;9.324;2022-12-18T03:58:07;-6.90;99.90
36132;DHT22;22185;48.738;9.324;2022-12-18T04:00:12;-7.00;99.90
36132;DHT22;22185;48.738;9.324;2022-12-18T04:02:15;-7.10;99.90
36132;DHT22;22185;48.738;9.324;2022-12-18T04:04:18;-7.20;99.90
36132;DHT22;22185;48.738;9.324;2022-12-18T04:06:20;-7.20;99.90
36132;DHT22;22185;48.738;9.324;2022-12-18T04:08:22;-7.00;99.90
36132;DHT22;22185;48.738;9.324;2022-12-18T04:10:25;-6.90;99.90
36132;DHT22;22185;48.738;9.324;2022-12-18T04:12:27;-7.00;99.90
36132;DHT22;22185;48.738;9.324;2022-12-18T04:14:31;-7.10;99.90
36132;DHT22;22185;48.738;9.324;2022-12-18T04:16:38;-7.10;99.90
36132;DHT22;22185;48.738;9.324;2022-12-18T04:18:40;-7.20;99.90
36132;DHT22;22185;48.738;9.324;2022-12-18T04:20:42;-7.20;99.90
36132;DHT22;22185;48.738;9.324;2022-12-18T04:22:44;-7.10;99.90
36132;DHT22;22185;48.738;9.324;2022-12-18T04:24:46;-7.20;99.90
36132;DHT22;22185;48.738;9.324;2022-12-18T04:26:48;-7.30;99.90
36132;DHT22;22185;48.738;9.324;2022-12-18T04:28:49;-7.30;99.90
36132;DHT22;22185;48.738;9.324;2022-12-18T04:30:51;-7.50;99.90
36132;DHT22;22185;48.738;9.324;2022-12-18T04:32:53;-7.50;99.90
36132;DHT22;22185;48.738;9.324;2022-12-18T04:34:55;-7.30;99.90
36132;DHT22;22185;48.738;9.324;2022-12-18T04:36:57;-7.40;99.90
36132;DHT22;22185;48.738;9.324;2022-12-18T04:38:58;-7.50;99.90
36132;DHT22;22185;48.738;9.324;2022-12-18T04:41:00;-7.50;99.90
36132;DHT22;22185;48.738;9.324;2022-12-18T04:43:02;-7.50;99.90
36132;DHT22;22185;48.738;9.324;2022-12-18T04:45:04;-7.50;99.90
36132;DHT22;22185;48.738;9.324;2022-12-18T04:47:06;-7.60;99.90
36132;DHT22;22185;48.738;9.324;2022-12-18T04:49:09;-7.80;99.90
36132;DHT22;22185;48.738;9.324;2022-12-18T04:51:12;-7.50;99.90
36132;DHT22;22185;48.738;9.324;2022-12-18T04:53:13;-7.40;99.90
36132;DHT22;22185;48.738;9.324;2022-12-18T04:55:15;-7.50;99.90
36132;DHT22;22185;48.738;9.324;2022-12-18T04:57:17;-7.70;99.90
36132;DHT22;22185;48.738;9.324;2022-12-18T04:59:22;-7.90;99.90
36132;DHT22;22185;48.738;9.324;2022-12-18T05:01:24;-8.10;99.90
36132;DHT22;22185;48.738;9.324;2022-12-18T05:03:33;-7.80;99.90
36132;DHT22;22185;48.738;9.324;2022-12-18T05:05:35;-7.80;99.90
36132;DHT22;22185;48.738;9.324;2022-12-18T05:07:37;-7.80;99.90
36132;DHT22;22185;48.738;9.324;2022-12-18T05:09:38;-7.90;99.90
36132;DHT22;22185;48.738;9.324;2022-12-18T05:11:40;-7.80;99.90
36132;DHT22;22185;48.738;9.324;2022-12-18T05:13:42;-7.80;99.90
36132;DHT22;22185;48.738;9.324;2022-12-18T05:15:50;-7.70;99.90
36132;DHT22;22185;48.738;9.324;2022-12-18T05:17:52;-7.80;99.90
36132;DHT22;22185;48.738;9.324;2022-12-18T05:19:54;-7.80;99.90
36132;DHT22;22185;48.738;9.324;2022-12-18T05:21:55;-7.70;99.90
36132;DHT22;22185;48.738;9.324;2022-12-18T05:23:57;-7.90;99.90
36132;DHT22;22185;48.738;9.324;2022-12-18T05:26:00;-7.80;99.90
36132;DHT22;22185;48.738;9.324;2022-12-18T05:28:01;-7.70;99.90
36132;DHT22;22185;48.738;9.324;2022-12-18T05:30:03;-7.70;99.90
36132;DHT22;22185;48.738;9.324;2022-12-18T05:32:05;-7.80;99.90
36132;DHT22;22185;48.738;9.324;2022-12-18T05:34:06;-8.00;99.90
36132;DHT22;22185;48.738;9.324;2022-12-18T05:36:08;-8.00;99.90
36132;DHT22;22185;48.738;9.324;2022-12-18T05:38:10;-7.90;99.90
36132;DHT22;22185;48.738;9.324;2022-12-18T05:40:12;-8.10;99.90
36132;DHT22;22185;48.738;9.324;2022-12-18T05:42:14;-8.20;99.90
36132;DHT22;22185;48.738;9.324;2022-12-18T05:44:15;-8.20;99.90
36132;DHT22;22185;48.738;9.324;2022-12-18T05:46:17;-8.20;99.90
36132;DHT22;22185;48.738;9.324;2022-12-18T05:48:19;-8.20;99.90
36132;DHT22;22185;48.738;9.324;2022-12-18T05:50:21;-8.50;99.90
36132;DHT22;22185;48.738;9.324;2022-12-18T05:52:23;-8.50;99.90
36132;DHT22;22185;48.738;9.324;2022-12-18T05:54:26;-8.70;99.90
36132;DHT22;22185;48.738;9.324;2022-12-18T05:56:28;-8.50;99.90
36132;DHT22;22185;48.738;9.324;2022-12-18T05:58:30;-8.60;99.90
36132;DHT22;22185;48.738;9.324;2022-12-18T06:00:32;-8.40;99.90
36132;DHT22;22185;48.738;9.324;2022-12-18T06:02:34;-8.70;99.90
36132;DHT22;22185;48.738;9.324;2022-12-18T06:04:36;-8.90;99.90
36132;DHT22;22185;48.738;9.324;2022-12-18T06:06:38;-8.80;99.90
36132;DHT22;22185;48.738;9.324;2022-12-18T06:08:39;-8.60;99.90
36132;DHT22;22185;48.738;9.324;2022-12-18T06:10:50;-8.70;99.90
36132;DHT22;22185;48.738;9.324;2022-12-18T06:12:53;-8.70;99.90
36132;DHT22;22185;48.738;9.324;2022-12-18T06:14:54;-8.70;99.90
36132;DHT22;22185;48.738;9.324;2022-12-18T06:16:56;-8.90;99.90
36132;DHT22;22185;48.738;9.324;2022-12-18T06:18:58;-9.00;99.90
36132;DHT22;22185;48.738;9.324;2022-12-18T06:21:00;-9.00;99.90
36132;DHT22;22185;48.738;9.324;2022-12-18T06:23:03;-9.00;99.90
36132;DHT22;22185;48.738;9.324;2022-12-18T06:25:05;-9.10;99.90
36132;DHT22;22185;48.738;9.324;2022-12-18T06:27:08;-8.90;99.90
36132;DHT22;22185;48.738;9.324;2022-12-18T06:29:09;-8.80;99.90
36132;DHT22;22185;48.738;9.324;2022-12-18T06:31:11;-8.80;99.90
36132;DHT22;22185;48.738;9.324;2022-12-18T06:33:14;-8.80;99.90
36132;DHT22;22185;48.738;9.324;2022-12-18T06:35:15;-8.80;99.90
36132;DHT22;22185;48.738;9.324;2022-12-18T06:37:17;-8.90;99.90
36132;DHT22;22185;48.738;9.324;2022-12-18T06:39:19;-8.80;99.90
36132;DHT22;22185;48.738;9.324;2022-12-18T06:41:20;-8.70;99.90
36132;DHT22;22185;48.738;9.324;2022-12-18T06:43:22;-8.80;99.90
36132;DHT22;22185;48.738;9.324;2022-12-18T06:45:24;-8.90;99.90
36132;DHT22;22185;48.738;9.324;2022-12-18T06:47:26;-8.90;99.90
36132;DHT22;22185;48.738;9.324;2022-12-18T06:49:27;-8.90;99.90
36132;DHT22;22185;48.738;9.324;2022-12-18T06:51:31;-8.80;99.90
36132;DHT22;22185;48.738;9.324;2022-12-18T06:53:33;-8.80;99.90
36132;DHT22;22185;48.738;9.324;2022-12-18T06:55:35;-9.00;99.90
36132;DHT22;22185;48.738;9.324;2022-12-18T06:57:36;-9.10;99.90
36132;DHT22;22185;48.738;9.324;2022-12-18T06:59:38;-9.00;99.90
36132;DHT22;22185;48.738;9.324;2022-12-18T07:01:40;-8.90;99.90
36132;DHT22;22185;48.738;9.324;2022-12-18T07:03:42;-9.00;99.90
36132;DHT22;22185;48.738;9.324;2022-12-18T07:05:45;-9.00;99.90
36132;DHT22;22185;48.738;9.324;2022-12-18T07:07:47;-8.80;99.90
36132;DHT22;22185;48.738;9.324;2022-12-18T07:09:51;-8.90;99.90
36132;DHT22;22185;48.738;9.324;2022-12-18T07:11:53;-9.10;99.90
36132;DHT22;22185;48.738;9.324;2022-12-18T07:13:55;-9.20;99.90
36132;DHT22;22185;48.738;9.324;2022-12-18T07:16:06;-9.20;99.90
36132;DHT22;22185;48.738;9.324;2022-12-18T07:18:17;-9.00;99.90
36132;DHT22;22185;48.738;9.324;2022-12-18T07:20:19;-9.10;99.90
36132;DHT22;22185;48.738;9.324;2022-12-18T07:22:21;-9.10;99.90
36132;DHT22;22185;48.738;9.324;2022-12-18T07:24:22;-9.10;99.90
36132;DHT22;22185;48.738;9.324;2022-12-18T07:26:24;-9.00;99.90
36132;DHT22;22185;48.738;9.324;2022-12-18T07:28:26;-9.00;99.90
36132;DHT22;22185;48.738;9.324;2022-12-18T07:30:27;-9.20;99.90
36132;DHT22;22185;48.738;9.324;2022-12-18T07:32:29;-9.40;99.90
36132;DHT22;22185;48.738;9.324;2022-12-18T07:34:31;-9.30;99.90
36132;DHT22;22185;48.738;9.324;2022-12-18T07:36:33;-9.30;99.90
36132;DHT22;22185;48.738;9.324;2022-12-18T07:38:34;-8.70;99.90
36132;DHT22;22185;48.738;9.324;2022-12-18T07:40:36;-8.80;99.90
36132;DHT22;22185;48.738;9.324;2022-12-18T07:42:38;-9.20;99.90
36132;DHT22;22185;48.738;9.324;2022-12-18T07:44:40;-9.30;99.90
36132;DHT22;22185;48.738;9.324;2022-12-18T07:46:41;-8.80;99.90
36132;DHT22;22185;48.738;9.324;2022-12-18T07:48:43;-8.70;99.90
36132;DHT22;22185;48.738;9.324;2022-12-18T07:50:50;-8.90;99.90
36132;DHT22;22185;48.738;9.324;2022-12-18T07:52:52;-8.40;99.90
36132;DHT22;22185;48.738;9.324;2022-12-18T07:54:53;-8.30;99.90
36132;DHT22;22185;48.738;9.324;2022-12-18T07:56:55;-8.70;99.90
36132;DHT22;22185;48.738;9.324;2022-12-18T07:58:57;-8.90;99.90
36132;DHT22;22185;48.738;9.324;2022-12-18T08:01:06;-8.80;99.90
36132;DHT22;22185;48.738;9.324;2022-12-18T08:03:08;-8.40;99.90
36132;DHT22;22185;48.738;9.324;2022-12-18T08:05:10;-8.40;99.90
36132;DHT22;22185;48.738;9.324;2022-12-18T08:07:12;-8.30;99.90
36132;DHT22;22185;48.738;9.324;2022-12-18T08:09:14;-8.20;99.90
36132;DHT22;22185;48.738;9.324;2022-12-18T08:11:15;-8.20;99.90
36132;DHT22;22185;48.738;9.324;2022-12-18T08:13:17;-8.20;99.90
36132;DHT22;22185;48.738;9.324;2022-12-18T08:15:19;-8.10;99.90
36132;DHT22;22185;48.738;9.324;2022-12-18T08:17:20;-8.30;99.90
36132;DHT22;22185;48.738;9.324;2022-12-18T08:19:22;-8.30;99.90
36132;DHT22;22185;48.738;9.324;2022-12-18T08:21:26;-8.30;99.90
36132;DHT22;22185;48.738;9.324;2022-12-18T08:23:28;-8.40;99.90
36132;DHT22;22185;48.738;9.324;2022-12-18T08:25:30;-8.50;99.90
36132;DHT22;22185;48.738;9.324;2022-12-18T08:27:31;-8.60;99.90
36132;DHT22;22185;48.738;9.324;2022-12-18T08:29:34;-8.60;99.90
36132;DHT22;22185;48.738;9.324;2022-12-18T08:31:36;-8.60;99.90
36132;DHT22;22185;48.738;9.324;2022-12-18T08:33:38;-8.60;99.90
36132;DHT22;22185;48.738;9.324;2022-12-18T08:35:41;-8.60;99.90
36132;DHT22;22185;48.738;9.324;2022-12-18T08:37:46;-8.70;99.90
36132;DHT22;22185;48.738;9.324;2022-12-18T08:39:48;-8.40;99.90
36132;DHT22;22185;48.738;9.324;2022-12-18T08:41:50;-8.30;99.90
36132;DHT22;22185;48.738;9.324;2022-12-18T08:44:11;-8.30;99.90
36132;DHT22;22185;48.738;9.324;2022-12-18T08:46:32;-8.30;99.90
36132;DHT22;22185;48.738;9.324;2022-12-18T08:48:35;-8.50;99.90
36132;DHT22;22185;48.738;9.324;2022-12-18T08:50:37;-8.40;99.90
36132;DHT22;22185;48.738;9.324;2022-12-18T08:52:39;-8.20;99.90
36132;DHT22;22185;48.738;9.324;2022-12-18T08:54:40;-8.00;99.90
36132;DHT22;22185;48.738;9.324;2022-12-18T08:56:42;-7.80;99.90
36132;DHT22;22185;48.738;9.324;2022-12-18T08:58:44;-7.70;99.90
36132;DHT22;22185;48.738;9.324;2022-12-18T09:00:45;-7.70;99.90
36132;DHT22;22185;48.738;9.324;2022-12-18T09:02:47;-7.60;99.90
36132;DHT22;22185;48.738;9.324;2022-12-18T09:04:49;-7.80;99.90
36132;DHT22;22185;48.738;9.324;2022-12-18T09:06:57;-7.70;99.90
36132;DHT22;22185;48.738;9.324;2022-12-18T09:08:59;-7.50;99.90
36132;DHT22;22185;48.738;9.324;2022-12-18T09:11:01;-7.40;99.90
36132;DHT22;22185;48.738;9.324;2022-12-18T09:13:03;-7.50;99.90
36132;DHT22;22185;48.738;9.324;2022-12-18T09:15:05;-7.40;99.90
36132;DHT22;22185;48.738;9.324;2022-12-18T09:17:07;-7.30;99.90
36132;DHT22;22185;48.738;9.324;2022-12-18T09:19:09;-7.30;99.90
36132;DHT22;22185;48.738;9.324;2022-12-18T09:21:12;-7.30;99.90
36132;DHT22;22185;48.738;9.324;2022-12-18T09:23:14;-6.90;99.90
36132;DHT22;22185;48.738;9.324;2022-12-18T09:25:16;-7.00;99.90
36132;DHT22;22185;48.738;9.324;2022-12-18T09:27:18;-6.70;99.90
36132;DHT22;22185;48.738;9.324;2022-12-18T09:29:20;-6.60;99.90
36132;DHT22;22185;48.738;9.324;2022-12-18T09:31:22;-6.60;99.90
36132;DHT22;22185;48.738;9.324;2022-12-18T09:33:24;-6.70;99.90
36132;DHT22;22185;48.738;9.324;2022-12-18T09:35:26;-6.30;99.90
36132;DHT22;22185;48.738;9.324;2022-12-18T09:37:29;-6.10;99.90
36132;DHT22;22185;48.738;9.324;2022-12-18T09:39:30;-6.00;99.90
36132;DHT22;22185;48.738;9.324;2022-12-18T09:43:41;-5.80;99.90
36132;DHT22;22185;48.738;9.324;2022-12-18T09:45:46;-5.70;99.90
36132;DHT22;22185;48.738;9.324;2022-12-18T09:47:50;-5.60;99.90
36132;DHT22;22185;48.738;9.324;2022-12-18T09:49:53;-5.80;99.90
36132;DHT22;22185;48.738;9.324;2022-12-18T09:54:18;-5.40;99.90
36132;DHT22;22185;48.738;9.324;2022-12-18T09:56:21;-5.50;99.90
36132;DHT22;22185;48.738;9.324;2022-12-18T10:00:26;-5.10;99.90
36132;DHT22;22185;48.738;9.324;2022-12-18T10:02:30;-5.10;99.90
36132;DHT22;22185;48.738;9.324;2022-12-18T10:04:32;-5.00;99.90
36132;DHT22;22185;48.738;9.324;2022-12-18T10:08:45;-5.00;99.90
36132;DHT22;22185;48.738;9.324;2022-12-18T10:10:50;-4.80;99.90
36132;DHT22;22185;48.738;9.324;2022-12-18T10:12:56;-5.00;99.90
36132;DHT22;22185;48.738;9.324;2022-12-18T10:21:38;-5.30;99.90
36132;DHT22;22185;48.738;9.324;2022-12-18T10:25:52;-4.80;99.90
36132;DHT22;22185;48.738;9.324;2022-12-18T10:27:56;-4.60;99.90
36132;DHT22;22185;48.738;9.324;2022-12-18T10:29:59;-5.20;99.90
36132;DHT22;22185;48.738;9.324;2022-12-18T10:32:02;-5.20;99.90
36132;DHT22;22185;48.738;9.324;2022-12-18T10:34:04;-4.90;99.90
36132;DHT22;22185;48.738;9.324;2022-12-18T10:36:09;-4.50;99.90
36132;DHT22;22185;48.738;9.324;2022-12-18T10:40:18;-4.00;99.90
36132;DHT22;22185;48.738;9.324;2022-12-18T10:42:23;-4.10;99.90
36132;DHT22;22185;48.738;9.324;2022-12-18T10:44:26;-3.70;99.90
36132;DHT22;22185;48.738;9.324;2022-12-18T10:46:28;-3.60;99.90
36132;DHT22;22185;48.738;9.324;2022-12-18T10:48:30;-3.60;99.90
36132;DHT22;22185;48.738;9.324;2022-12-18T10:50:35;-4.00;99.90
36132;DHT22;22185;48.738;9.324;2022-12-18T10:53:01;-4.40;99.90
36132;DHT22;22185;48.738;9.324;2022-12-18T10:55:04;-4.50;99.90
36132;DHT22;22185;48.738;9.324;2022-12-18T10:57:16;-4.10;99.90
36132;DHT22;22185;48.738;9.324;2022-12-18T10:59:18;-3.70;99.90
36132;DHT22;22185;48.738;9.324;2022-12-18T11:01:19;-3.40;99.90
36132;DHT22;22185;48.738;9.324;2022-12-18T11:03:38;-3.40;99.90
36132;DHT22;22185;48.738;9.324;2022-12-18T11:05:41;-3.30;99.90
36132;DHT22;22185;48.738;9.324;2022-12-18T11:07:49;-3.30;99.90
36132;DHT22;22185;48.738;9.324;2022-12-18T11:10:01;-3.30;99.90
36132;DHT22;22185;48.738;9.324;2022-12-18T11:12:03;-3.20;99.90
36132;DHT22;22185;48.738;9.324;2022-12-18T11:14:16;-2.90;99.90
36132;DHT22;22185;48.738;9.324;2022-12-18T11:16:20;-2.60;99.90
36132;DHT22;22185;48.738;9.324;2022-12-18T11:18:24;-2.50;99.90
36132;DHT22;22185;48.738;9.324;2022-12-18T11:20:30;-2.40;99.90
36132;DHT22;22185;48.738;9.324;2022-12-18T11:22:33;-2.20;99.90
36132;DHT22;22185;48.738;9.324;2022-12-18T11:24:36;-2.40;99.90
36132;DHT22;22185;48.738;9.324;2022-12-18T11:26:38;-2.60;99.90
36132;DHT22;22185;48.738;9.324;2022-12-18T11:28:42;-2.20;99.90
36132;DHT22;22185;48.738;9.324;2022-12-18T11:30:46;-1.90;99.90
36132;DHT22;22185;48.738;9.324;2022-12-18T11:32:53;-1.70;99.90
36132;DHT22;22185;48.738;9.324;2022-12-18T11:34:58;-1.60;99.90
36132;DHT22;22185;48.738;9.324;2022-12-18T11:37:01;-1.70;99.90
36132;DHT22;22185;48.738;9.324;2022-12-18T11:39:10;-1.30;99.90
36132;DHT22;22185;48.738;9.324;2022-12-18T11:43:23;-1.10;99.90
36132;DHT22;22185;48.738;9.324;2022-12-18T11:45:28;-0.70;99.90
36132;DHT22;22185;48.738;9.324;2022-12-18T11:49:50;-1.00;99.90
36132;DHT22;22185;48.738;9.324;2022-12-18T11:54:14;-1.60;99.90
36132;DHT22;22185;48.738;9.324;2022-12-18T11:58:44;-1.00;99.90
36132;DHT22;22185;48.738;9.324;2022-12-18T12:00:49;-1.20;99.90
36132;DHT22;22185;48.738;9.324;2022-12-18T12:08:21;-0.40;99.90
36132;DHT22;22185;48.738;9.324;2022-12-18T12:10:48;-0.20;99.90
36132;DHT22;22185;48.738;9.324;2022-12-18T12:12:28;-0.60;99.90
36132;DHT22;22185;48.738;9.324;2022-12-18T12:17:06;-0.50;99.90
36132;DHT22;22185;48.738;9.324;2022-12-18T12:21:49;0.00;99.90
36132;DHT22;22185;48.738;9.324;2022-12-18T12:23:46;0.00;99.90
36132;DHT22;22185;48.738;9.324;2022-12-18T12:25:51;0.20;99.90
36132;DHT22;22185;48.738;9.324;2022-12-18T12:28:12;0.00;99.90
36132;DHT22;22185;48.738;9.324;2022-12-18T12:34:34;0.40;99.90
36132;DHT22;22185;48.738;9.324;2022-12-18T12:38:58;0.30;99.90
36132;DHT22;22185;48.738;9.324;2022-12-18T12:41:04;0.10;99.90
36132;DHT22;22185;48.738;9.324;2022-12-18T12:43:31;0.00;99.90
36132;DHT22;22185;48.738;9.324;2022-12-18T12:47:36;-0.20;99.90
36132;DHT22;22185;48.738;9.324;2022-12-18T12:49:39;0.10;99.90
36132;DHT22;22185;48.738;9.324;2022-12-18T12:51:43;-0.10;99.90
36132;DHT22;22185;48.738;9.324;2022-12-18T12:53:46;0.30;99.90
36132;DHT22;22185;48.738;9.324;2022-12-18T12:55:48;0.50;99.90
36132;DHT22;22185;48.738;9.324;2022-12-18T13:06:08;-0.50;99.90
36132;DHT22;22185;48.738;9.324;2022-12-18T13:08:23;-0.40;99.90
36132;DHT22;22185;48.738;9.324;2022-12-18T13:10:30;-0.40;99.90
36132;DHT22;22185;48.738;9.324;2022-12-18T13:12:32;-0.30;99.90
36132;DHT22;22185;48.738;9.324;2022-12-18T13:14:53;0.00;99.90
36132;DHT22;22185;48.738;9.324;2022-12-18T13:17:14;0.10;99.90
36132;DHT22;22185;48.738;9.324;2022-12-18T13:19:22;0.20;99.90
36132;DHT22;22185;48.738;9.324;2022-12-18T13:21:27;0.70;99.90
36132;DHT22;22185;48.738;9.324;2022-12-18T13:23:31;0.90;99.90
36132;DHT22;22185;48.738;9.324;2022-12-18T13:25:34;0.90;99.90
36132;DHT22;22185;48.738;9.324;2022-12-18T13:29:45;0.50;99.90
36132;DHT22;22185;48.738;9.324;2022-12-18T13:33:50;0.40;99.90
36132;DHT22;22185;48.738;9.324;2022-12-18T13:42:52;0.40;99.90
36132;DHT22;22185;48.738;9.324;2022-12-18T13:45:34;0.40;99.90
36132;DHT22;22185;48.738;9.324;2022-12-18T13:47:40;0.50;99.90
36132;DHT22;22185;48.738;9.324;2022-12-18T13:49:46;0.40;99.90
36132;DHT22;22185;48.738;9.324;2022-12-18T13:52:23;0.60;99.90
36132;DHT22;22185;48.738;9.324;2022-12-18T13:56:43;0.00;99.90
36132;DHT22;22185;48.738;9.324;2022-12-18T14:02:05;-0.20;99.90
36132;DHT22;22185;48.738;9.324;2022-12-18T14:04:18;-0.60;99.90
36132;DHT22;22185;48.738;9.324;2022-12-18T14:06:20;-0.80;99.90
36132;DHT22;22185;48.738;9.324;2022-12-18T14:08:21;-0.50;99.90
36132;DHT22;22185;48.738;9.324;2022-12-18T14:10:27;-0.30;99.90
36132;DHT22;22185;48.738;9.324;2022-12-18T14:12:50;-0.40;99.90
36132;DHT22;22185;48.738;9.324;2022-12-18T14:15:01;-0.10;99.90
36132;DHT22;22185;48.738;9.324;2022-12-18T14:17:04;-0.30;99.90
36132;DHT22;22185;48.738;9.324;2022-12-18T14:19:12;-0.10;99.90
36132;DHT22;22185;48.738;9.324;2022-12-18T14:21:17;0.10;99.90
36132;DHT22;22185;48.738;9.324;2022-12-18T14:23:29;0.00;99.90
36132;DHT22;22185;48.738;9.324;2022-12-18T14:25:31;0.00;99.90
36132;DHT22;22185;48.738;9.324;2022-12-18T14:27:37;0.10;99.90
36132;DHT22;22185;48.738;9.324;2022-12-18T14:29:38;-0.10;99.90
36132;DHT22;22185;48.738;9.324;2022-12-18T14:31:44;-0.30;99.90
36132;DHT22;22185;48.738;9.324;2022-12-18T14:33:45;-0.50;99.90
36132;DHT22;22185;48.738;9.324;2022-12-18T14:35:57;-0.40;99.90
36132;DHT22;22185;48.738;9.324;2022-12-18T14:40:11;-0.30;99.90
36132;DHT22;22185;48.738;9.324;2022-12-18T14:42:14;-0.40;99.90
36132;DHT22;22185;48.738;9.324;2022-12-18T14:44:16;-0.40;99.90
36132;DHT22;22185;48.738;9.324;2022-12-18T14:46:36;-0.50;99.90
36132;DHT22;22185;48.738;9.324;2022-12-18T14:48:39;-0.50;99.90
36132;DHT22;22185;48.738;9.324;2022-12-18T14:50:41;-0.60;99.90